Time;durP1;ratioP1;P1;durP2;ratioP2;P2;SDS_P1;SDS_P2;PMS_P1;PMS_P2;Temp;Humidity;BMP_temperature;BMP_pressure;BME280_temperature;BME280_humidity;BME280_pressure;Samples;Min_cycle;Max_cycle;Signal;HPM_P1;HPM_P2
2021/12/09 00:01:07;;;;;;;5.43;3.23;;;3.40;99.90;;;;;;5020737;28;20077;-77
2021/12/09 00:03:40;;;;;;;4.80;3.47;;;3.40;99.90;;;;;;4986039;28;20088;-77
2021/12/09 00:06:06;;;;;;;2.50;2.33;;;3.40;99.90;;;;;;5020626;28;20108;-77
2021/12/09 00:08:33;;;;;;;3.83;3.37;;;3.40;99.90;;;;;;5020866;28;20057;-77
2021/12/09 00:11:01;;;;;;;16.70;3.27;;;3.40;99.90;;;;;;5021334;28;20413;-77
2021/12/09 00:13:28;;;;;;;3.27;2.97;;;3.40;99.90;;;;;;5002895;28;20049;-77
2021/12/09 00:15:54;;;;;;;4.63;4.23;;;3.30;99.90;;;;;;5020960;28;20044;-77
2021/12/09 00:18:20;;;;;;;4.57;4.20;;;3.40;99.90;;;;;;5020866;28;20048;-76
2021/12/09 00:20:46;;;;;;;3.13;2.93;;;3.40;99.90;;;;;;5021887;28;20050;-76
2021/12/09 00:23:11;;;;;;;8.03;3.47;;;3.40;99.90;;;;;;5020620;28;20059;-76
2021/12/09 00:25:38;;;;;;;3.63;3.40;;;3.40;99.90;;;;;;5021111;28;20045;-77
2021/12/09 00:28:04;;;;;;;6.33;2.77;;;3.40;99.90;;;;;;5003302;28;20034;-76
2021/12/09 00:30:31;;;;;;;3.40;3.17;;;3.30;99.90;;;;;;4999800;28;20482;-77
2021/12/09 00:32:58;;;;;;;3.20;3.00;;;3.30;99.90;;;;;;4999979;28;20052;-77
2021/12/09 00:35:29;;;;;;;10.17;4.13;;;3.30;99.90;;;;;;4983260;28;20054;-76
2021/12/09 00:38:00;;;;;;;3.08;2.78;;;3.30;99.90;;;;;;4983392;28;20042;-77
2021/12/09 00:40:26;;;;;;;10.63;4.47;;;3.30;99.90;;;;;;5000915;28;21234;-76
2021/12/09 00:42:51;;;;;;;3.13;2.83;;;3.30;99.90;;;;;;5000825;28;20102;-77
2021/12/09 00:45:17;;;;;;;3.50;3.10;;;3.30;99.90;;;;;;4984315;28;20042;-77
2021/12/09 00:47:43;;;;;;;3.27;2.97;;;3.30;99.90;;;;;;4999576;28;20164;-76
2021/12/09 00:50:09;;;;;;;4.53;3.87;;;3.30;99.90;;;;;;5000949;28;20054;-77
2021/12/09 00:52:35;;;;;;;3.73;3.53;;;3.30;99.90;;;;;;4983353;28;20048;-77
2021/12/09 00:55:01;;;;;;;2.77;2.57;;;3.20;99.90;;;;;;5001020;28;20046;-77
2021/12/09 00:57:27;;;;;;;9.90;3.43;;;3.20;99.90;;;;;;5000937;28;20068;-76
2021/12/09 00:59:53;;;;;;;3.50;3.20;;;3.20;99.90;;;;;;5000468;28;20045;-77
2021/12/09 01:02:19;;;;;;;3.10;2.90;;;3.20;99.90;;;;;;5000422;28;20038;-76
2021/12/09 01:04:46;;;;;;;2.20;2.10;;;3.20;99.90;;;;;;5000676;28;20133;-76
2021/12/09 01:07:13;;;;;;;3.90;3.60;;;3.20;99.90;;;;;;4999228;28;20069;-76
2021/12/09 01:09:39;;;;;;;4.73;3.13;;;3.20;99.90;;;;;;5000002;28;20045;-76
2021/12/09 01:12:06;;;;;;;6.97;4.33;;;3.10;99.90;;;;;;4985987;28;20092;-77
2021/12/09 01:14:33;;;;;;;2.27;2.17;;;3.10;99.90;;;;;;5004417;28;20050;-76
2021/12/09 01:16:59;;;;;;;4.10;3.73;;;3.20;99.90;;;;;;5003242;28;20400;-77
2021/12/09 01:19:25;;;;;;;5.23;4.20;;;3.10;99.90;;;;;;5004055;28;20038;-77
2021/12/09 01:21:50;;;;;;;4.93;4.10;;;3.10;99.90;;;;;;5004511;28;20037;-77
2021/12/09 01:24:16;;;;;;;3.60;3.10;;;3.10;99.90;;;;;;5004466;28;20042;-76
2021/12/09 01:26:42;;;;;;;6.17;3.53;;;3.10;99.90;;;;;;5004402;28;20096;-76
2021/12/09 01:29:15;;;;;;;4.83;3.73;;;3.10;99.90;;;;;;4994275;28;20174;-76
2021/12/09 01:31:44;;;;;;;3.03;2.83;;;3.10;99.90;;;;;;5023417;28;20111;-77
2021/12/09 01:34:09;;;;;;;2.63;2.53;;;3.10;99.90;;;;;;5023144;28;20041;-76
2021/12/09 01:36:36;;;;;;;19.87;4.40;;;3.10;99.90;;;;;;5006358;28;20054;-76
2021/12/09 01:39:06;;;;;;;4.03;2.90;;;3.10;99.90;;;;;;5023201;28;20069;-77
2021/12/09 01:41:32;;;;;;;3.87;3.40;;;3.10;99.90;;;;;;5006123;28;20329;-76
2021/12/09 01:43:58;;;;;;;7.23;3.90;;;3.00;99.90;;;;;;5005872;28;20520;-77
2021/12/09 01:46:24;;;;;;;3.20;2.97;;;3.10;99.90;;;;;;5023598;28;20169;-77
2021/12/09 01:48:51;;;;;;;9.53;2.90;;;3.10;99.90;;;;;;5023174;28;20459;-76
2021/12/09 01:51:18;;;;;;;4.83;4.17;;;3.10;99.90;;;;;;5023815;28;20088;-76
2021/12/09 01:53:44;;;;;;;4.90;3.20;;;3.00;99.90;;;;;;5023378;28;20038;-76
2021/12/09 01:56:14;;;;;;;5.30;3.17;;;3.00;99.90;;;;;;5023468;28;20068;-76
2021/12/09 01:58:40;;;;;;;3.93;3.57;;;3.00;99.90;;;;;;5023333;28;20464;-76
2021/12/09 02:01:06;;;;;;;4.63;2.73;;;3.00;99.90;;;;;;5023153;28;20144;-76
2021/12/09 02:03:33;;;;;;;3.53;3.23;;;3.00;99.90;;;;;;5022455;28;20463;-77
2021/12/09 02:05:59;;;;;;;5.70;4.70;;;3.00;99.90;;;;;;5022694;28;20064;-76
2021/12/09 02:08:25;;;;;;;3.87;3.57;;;2.90;99.90;;;;;;5022909;28;20439;-76
2021/12/09 02:10:51;;;;;;;5.20;4.73;;;3.00;99.90;;;;;;5022632;28;20470;-77
2021/12/09 02:13:18;;;;;;;8.27;3.20;;;3.00;99.90;;;;;;5023257;28;20084;-76
2021/12/09 02:15:44;;;;;;;4.07;3.77;;;3.00;99.90;;;;;;5023036;28;20052;-76
2021/12/09 02:18:12;;;;;;;2.53;2.10;;;3.00;99.90;;;;;;5021847;28;20341;-76
2021/12/09 02:20:40;;;;;;;4.63;4.13;;;3.00;99.90;;;;;;5022824;28;20041;-76
2021/12/09 02:23:10;;;;;;;5.00;4.50;;;3.00;99.90;;;;;;5021356;28;20048;-76
2021/12/09 02:25:37;;;;;;;4.70;4.13;;;2.90;99.90;;;;;;5004779;28;20104;-76
2021/12/09 02:28:04;;;;;;;6.27;5.17;;;2.90;99.90;;;;;;5022367;28;20128;-76
2021/12/09 02:30:29;;;;;;;5.37;4.87;;;2.90;99.90;;;;;;5002767;28;20132;-76
2021/12/09 02:32:55;;;;;;;5.27;4.80;;;2.90;99.90;;;;;;5001516;28;20520;-76
2021/12/09 02:35:21;;;;;;;3.23;2.97;;;2.90;99.90;;;;;;5002980;28;20085;-76
2021/12/09 02:37:46;;;;;;;3.67;3.37;;;2.90;99.90;;;;;;5003324;28;20521;-76
2021/12/09 02:40:12;;;;;;;7.60;4.80;;;2.90;99.90;;;;;;5002403;28;20511;-76
2021/12/09 02:42:38;;;;;;;4.40;3.40;;;2.90;99.90;;;;;;5002919;28;20045;-76
2021/12/09 02:45:07;;;;;;;4.50;4.17;;;2.90;99.90;;;;;;5002308;28;20069;-76
2021/12/09 02:47:33;;;;;;;5.30;3.80;;;2.90;99.90;;;;;;5001691;28;20587;-76
2021/12/09 02:50:00;;;;;;;11.07;5.27;;;2.90;99.90;;;;;;5002105;28;20042;-76
2021/12/09 02:52:26;;;;;;;4.97;3.60;;;2.90;99.90;;;;;;5002203;28;20045;-76
2021/12/09 02:54:52;;;;;;;11.70;4.53;;;2.90;99.90;;;;;;4985031;28;20473;-77
2021/12/09 02:57:17;;;;;;;4.10;3.70;;;2.90;99.90;;;;;;5002948;28;20053;-76
2021/12/09 02:59:43;;;;;;;12.00;4.90;;;2.80;99.90;;;;;;4984453;28;20050;-76
2021/12/09 03:02:10;;;;;;;10.60;4.27;;;2.80;99.90;;;;;;5001138;28;20042;-76
2021/12/09 03:04:47;;;;;;;11.50;5.30;;;2.80;99.90;;;;;;5002345;28;20569;-76
2021/12/09 03:07:27;;;;;;;4.00;3.60;;;2.80;99.90;;;;;;5001431;28;20560;-76
2021/12/09 03:09:59;;;;;;;4.27;3.87;;;2.80;99.90;;;;;;5001834;28;20614;-77
2021/12/09 03:12:33;;;;;;;3.13;2.13;;;2.80;99.90;;;;;;4984994;28;20392;-76
2021/12/09 03:15:01;;;;;;;5.90;4.47;;;2.80;99.90;;;;;;5001741;28;20038;-76
2021/12/09 03:17:27;;;;;;;4.47;4.03;;;2.80;99.90;;;;;;5001259;28;20064;-76
2021/12/09 03:19:53;;;;;;;5.57;5.07;;;2.80;99.90;;;;;;5001533;28;20440;-77
2021/12/09 03:22:19;;;;;;;3.03;2.57;;;2.80;99.90;;;;;;5002462;28;20520;-76
2021/12/09 03:24:46;;;;;;;6.03;4.33;;;2.80;99.90;;;;;;5001861;28;20095;-76
2021/12/09 03:27:11;;;;;;;9.17;4.83;;;2.80;99.90;;;;;;5001534;28;20053;-76
2021/12/09 03:29:38;;;;;;;5.43;4.17;;;2.80;99.90;;;;;;4996464;28;20061;-76
2021/12/09 03:32:07;;;;;;;5.60;3.83;;;2.80;99.90;;;;;;5020186;28;20488;-76
2021/12/09 03:34:35;;;;;;;4.37;4.07;;;2.80;99.90;;;;;;5003448;28;20053;-76
2021/12/09 03:37:04;;;;;;;4.77;3.67;;;2.80;99.90;;;;;;5021286;28;20113;-76
2021/12/09 03:39:32;;;;;;;5.60;4.70;;;2.80;99.90;;;;;;5021540;28;20042;-76
2021/12/09 03:41:58;;;;;;;5.77;4.27;;;2.80;99.90;;;;;;5003466;28;20045;-76
2021/12/09 03:44:24;;;;;;;5.13;4.63;;;2.70;99.90;;;;;;5021640;28;20056;-77
2021/12/09 03:46:52;;;;;;;13.30;5.43;;;2.80;99.90;;;;;;5020592;28;20037;-76
2021/12/09 03:49:19;;;;;;;6.27;4.53;;;2.80;99.90;;;;;;5003546;28;20056;-76
2021/12/09 03:51:44;;;;;;;4.17;2.70;;;2.70;99.90;;;;;;5020980;28;20495;-76
2021/12/09 03:54:11;;;;;;;4.13;3.83;;;2.80;99.90;;;;;;5020940;28;20246;-76
2021/12/09 03:56:38;;;;;;;13.70;4.60;;;2.70;99.90;;;;;;5021182;28;20342;-76
2021/12/09 03:59:06;;;;;;;10.43;5.03;;;2.70;99.90;;;;;;5020690;28;20060;-76
2021/12/09 04:01:33;;;;;;;4.73;4.20;;;2.70;99.90;;;;;;5020431;28;20036;-76
2021/12/09 04:03:58;;;;;;;7.30;5.47;;;2.80;99.90;;;;;;5002788;28;20041;-77
2021/12/09 04:06:24;;;;;;;4.57;4.20;;;2.70;99.90;;;;;;5021154;28;20049;-76
2021/12/09 04:08:49;;;;;;;2.80;2.53;;;2.70;99.90;;;;;;5021259;28;20432;-76
2021/12/09 04:11:18;;;;;;;3.53;3.33;;;2.70;99.90;;;;;;5020483;28;20326;-76
2021/12/09 04:13:44;;;;;;;4.70;4.37;;;2.70;99.90;;;;;;5003457;28;20073;-76
2021/12/09 04:16:10;;;;;;;7.00;6.37;;;2.70;99.90;;;;;;5020368;28;20423;-76
2021/12/09 04:18:39;;;;;;;3.97;3.70;;;2.60;99.90;;;;;;5002595;28;20044;-76
2021/12/09 04:21:05;;;;;;;4.93;4.53;;;2.70;99.90;;;;;;5002679;28;20041;-76
2021/12/09 04:23:31;;;;;;;7.23;4.87;;;2.60;99.90;;;;;;5020442;28;20436;-76
2021/12/09 04:25:58;;;;;;;3.50;3.27;;;2.60;99.90;;;;;;5020657;28;20037;-76
2021/12/09 04:28:24;;;;;;;4.47;3.93;;;2.60;99.90;;;;;;5017962;28;20387;-76
2021/12/09 04:30:50;;;;;;;7.00;5.27;;;2.60;99.90;;;;;;5001687;28;20072;-76
2021/12/09 04:33:16;;;;;;;5.57;4.33;;;2.60;99.90;;;;;;5000613;28;20071;-76
2021/12/09 04:35:42;;;;;;;5.53;3.77;;;2.60;99.90;;;;;;5001108;28;20042;-76
2021/12/09 04:38:08;;;;;;;5.23;3.33;;;2.50;99.90;;;;;;5000757;28;20042;-76
2021/12/09 04:40:34;;;;;;;5.27;3.70;;;2.50;99.90;;;;;;5000849;28;20038;-76
2021/12/09 04:43:02;;;;;;;5.80;2.83;;;2.50;99.90;;;;;;5000796;28;20042;-76
2021/12/09 04:45:28;;;;;;;5.33;4.90;;;2.50;99.90;;;;;;5001851;28;20042;-76
2021/12/09 04:47:54;;;;;;;5.03;3.87;;;2.50;99.90;;;;;;5003800;28;20647;-76
2021/12/09 04:50:20;;;;;;;2.87;2.53;;;2.50;99.90;;;;;;4987707;28;20125;-76
2021/12/09 04:52:45;;;;;;;5.67;5.17;;;2.50;99.90;;;;;;5005117;28;20125;-75
2021/12/09 04:55:11;;;;;;;4.13;3.83;;;2.50;99.90;;;;;;5004765;28;20273;-76
2021/12/09 04:57:42;;;;;;;5.73;5.23;;;2.50;99.90;;;;;;4986760;28;20050;-76
2021/12/09 05:00:14;;;;;;;4.30;4.00;;;2.50;99.90;;;;;;5004340;28;20045;-76
2021/12/09 05:05:23;;;;;;;4.90;4.37;;;2.40;99.90;;;;;;5004493;28;20046;-76
2021/12/09 05:07:49;;;;;;;3.43;3.17;;;2.50;99.90;;;;;;5004289;28;20112;-76
2021/12/09 05:10:15;;;;;;;6.07;4.83;;;2.40;99.90;;;;;;4986179;28;20080;-76
2021/12/09 05:12:41;;;;;;;3.33;3.13;;;2.40;99.90;;;;;;5004197;28;20298;-76
2021/12/09 05:15:08;;;;;;;9.27;3.83;;;2.40;99.90;;;;;;5003977;28;20046;-76
2021/12/09 05:17:33;;;;;;;4.67;4.27;;;2.40;99.90;;;;;;5003437;28;20117;-76
2021/12/09 05:19:59;;;;;;;5.67;5.23;;;2.40;99.90;;;;;;5003681;28;20572;-76
2021/12/09 05:22:25;;;;;;;15.17;4.80;;;2.40;99.90;;;;;;4986424;28;20042;-76
2021/12/09 05:24:52;;;;;;;5.80;4.07;;;2.30;99.90;;;;;;5004134;28;20045;-77
2021/12/09 05:27:18;;;;;;;2.93;2.77;;;2.40;99.90;;;;;;5004458;28;20038;-76
2021/12/09 05:29:46;;;;;;;7.60;5.57;;;2.40;99.90;;;;;;5017849;28;20045;-76
2021/12/09 05:32:13;;;;;;;8.20;5.47;;;2.40;99.90;;;;;;5022247;28;20037;-76
2021/12/09 05:34:46;;;;;;;7.70;4.00;;;2.30;99.90;;;;;;5023776;28;20045;-76
2021/12/09 05:37:22;;;;;;;4.50;4.17;;;2.30;99.90;;;;;;5005058;28;20050;-76
2021/12/09 05:39:50;;;;;;;3.97;3.67;;;2.30;99.90;;;;;;5022649;28;20141;-76
2021/12/09 05:42:17;;;;;;;3.73;3.43;;;2.40;99.90;;;;;;5023527;28;20048;-76
2021/12/09 05:44:43;;;;;;;6.40;5.10;;;2.40;99.90;;;;;;5023595;28;20042;-76
2021/12/09 05:47:10;;;;;;;6.07;3.90;;;2.30;99.90;;;;;;5021962;28;20064;-76
2021/12/09 05:49:37;;;;;;;3.77;3.47;;;2.30;99.90;;;;;;5023517;28;20124;-76
2021/12/09 05:52:05;;;;;;;3.87;3.53;;;2.30;99.90;;;;;;5022989;28;20056;-76
2021/12/09 05:54:30;;;;;;;1.97;1.77;;;2.40;99.90;;;;;;5023654;28;20500;-76
2021/12/09 05:56:57;;;;;;;7.63;5.53;;;2.40;99.90;;;;;;5023213;28;20084;-76
2021/12/09 05:59:22;;;;;;;4.93;4.50;;;2.40;99.90;;;;;;5005206;28;20046;-76
2021/12/09 06:01:48;;;;;;;5.37;3.70;;;2.40;99.90;;;;;;5023015;28;20052;-76
2021/12/09 06:04:13;;;;;;;10.40;5.50;;;2.40;99.90;;;;;;5023153;28;20041;-76
2021/12/09 06:06:39;;;;;;;5.33;4.93;;;2.30;99.90;;;;;;5022819;28;20362;-76
2021/12/09 06:09:09;;;;;;;5.97;5.43;;;2.30;99.90;;;;;;5023164;28;20045;-76
2021/12/09 06:11:35;;;;;;;5.67;4.60;;;2.40;99.90;;;;;;5022579;28;20045;-76
2021/12/09 06:14:01;;;;;;;4.57;3.93;;;2.40;99.90;;;;;;5013816;28;20096;-76
2021/12/09 06:16:27;;;;;;;4.70;4.37;;;2.40;99.90;;;;;;5010362;28;20049;-76
2021/12/09 06:18:54;;;;;;;5.63;5.23;;;2.40;99.90;;;;;;5012520;28;20420;-76
2021/12/09 06:21:22;;;;;;;3.73;3.43;;;2.40;99.90;;;;;;5020038;28;20041;-76
2021/12/09 06:23:48;;;;;;;6.30;5.10;;;2.40;99.90;;;;;;5006060;28;20033;-76
2021/12/09 06:26:14;;;;;;;7.57;4.23;;;2.40;99.90;;;;;;5005587;28;20060;-76
2021/12/09 06:28:39;;;;;;;8.90;4.10;;;2.40;99.90;;;;;;5001005;28;20037;-76
2021/12/09 06:31:06;;;;;;;3.77;3.47;;;2.40;99.90;;;;;;5002666;28;20121;-76
2021/12/09 06:33:32;;;;;;;3.53;3.23;;;2.40;99.90;;;;;;5007906;28;20087;-76
2021/12/09 06:35:59;;;;;;;5.73;5.23;;;2.40;99.90;;;;;;5007936;28;20046;-76
2021/12/09 06:38:24;;;;;;;2.97;2.77;;;2.40;99.90;;;;;;5013495;28;20084;-75
2021/12/09 06:40:50;;;;;;;4.63;2.83;;;2.30;99.90;;;;;;5005979;28;20668;-76
2021/12/09 06:43:16;;;;;;;2.33;2.00;;;2.40;99.90;;;;;;4996055;28;20041;-75
2021/12/09 06:45:42;;;;;;;7.77;4.33;;;2.30;99.90;;;;;;5000315;28;20073;-76
2021/12/09 06:48:08;;;;;;;4.53;4.23;;;2.40;99.90;;;;;;5002635;28;20049;-76
2021/12/09 06:50:35;;;;;;;7.13;5.33;;;2.30;99.90;;;;;;5008038;28;20046;-76
2021/12/09 06:53:01;;;;;;;3.83;3.43;;;2.30;99.90;;;;;;5014493;28;20049;-76
2021/12/09 06:55:26;;;;;;;3.07;2.80;;;2.30;99.90;;;;;;5003836;28;20037;-76
2021/12/09 06:57:52;;;;;;;5.90;4.03;;;2.30;99.90;;;;;;5004309;28;20137;-80
2021/12/09 07:00:21;;;;;;;10.27;4.93;;;2.30;99.90;;;;;;4993538;28;20046;-79
2021/12/09 07:02:47;;;;;;;4.87;4.07;;;2.30;99.90;;;;;;4997862;28;20048;-80
2021/12/09 07:05:14;;;;;;;4.53;4.17;;;2.30;99.90;;;;;;4997508;28;20049;-81
2021/12/09 07:07:41;;;;;;;3.43;3.23;;;2.20;99.90;;;;;;5010571;28;20820;-81
2021/12/09 07:10:08;;;;;;;5.13;4.57;;;2.30;99.90;;;;;;5013186;28;20433;-78
2021/12/09 07:12:36;;;;;;;3.27;2.97;;;2.30;99.90;;;;;;5001915;28;20068;-75
2021/12/09 07:15:03;;;;;;;3.53;3.23;;;2.30;99.90;;;;;;5015019;28;20046;-76
2021/12/09 07:17:29;;;;;;;3.20;2.53;;;2.30;99.90;;;;;;5002609;28;20048;-76
2021/12/09 07:19:54;;;;;;;3.37;2.83;;;2.40;99.90;;;;;;5003432;28;20489;-80
2021/12/09 07:22:20;;;;;;;4.17;3.77;;;2.40;99.90;;;;;;4986204;28;20136;-75
2021/12/09 07:24:45;;;;;;;3.93;2.67;;;2.40;99.90;;;;;;5016143;28;20037;-75
2021/12/09 07:27:11;;;;;;;3.43;3.13;;;2.40;99.90;;;;;;5005264;28;20052;-75
2021/12/09 07:29:37;;;;;;;4.07;3.67;;;2.40;99.90;;;;;;5013327;28;20083;-75
2021/12/09 07:32:03;;;;;;;4.37;3.47;;;2.30;99.90;;;;;;5021636;28;20091;-75
2021/12/09 07:34:29;;;;;;;4.50;3.43;;;2.30;99.90;;;;;;4993732;28;20137;-75
2021/12/09 07:36:56;;;;;;;3.13;2.80;;;2.30;99.90;;;;;;5002643;28;20116;-75
2021/12/09 07:39:22;;;;;;;3.20;2.60;;;2.30;99.90;;;;;;5003199;28;20074;-75
2021/12/09 07:41:48;;;;;;;14.77;5.53;;;2.40;99.90;;;;;;5003490;28;20117;-75
2021/12/09 07:44:17;;;;;;;3.23;2.90;;;2.30;99.90;;;;;;5007992;28;20499;-74
2021/12/09 07:46:45;;;;;;;9.00;3.03;;;2.30;99.90;;;;;;4985329;28;20071;-75
2021/12/09 07:49:11;;;;;;;5.47;3.47;;;2.30;99.90;;;;;;4985558;28;20062;-74
2021/12/09 07:51:37;;;;;;;2.47;2.37;;;2.30;99.90;;;;;;5020852;28;20377;-74
2021/12/09 07:54:02;;;;;;;10.37;4.20;;;2.30;99.90;;;;;;5014509;28;20471;-74
2021/12/09 07:56:28;;;;;;;2.13;2.03;;;2.30;99.90;;;;;;5002656;28;20060;-75
2021/12/09 07:58:54;;;;;;;4.83;3.97;;;2.30;99.90;;;;;;5011101;28;20049;-75
2021/12/09 08:01:19;;;;;;;3.17;2.87;;;2.20;99.90;;;;;;5017643;28;20442;-77
2021/12/09 08:03:47;;;;;;;5.83;4.90;;;2.20;99.90;;;;;;4988639;28;20052;-76
2021/12/09 08:06:14;;;;;;;2.90;2.53;;;2.30;99.90;;;;;;5016330;28;20088;-77
2021/12/09 08:08:40;;;;;;;3.70;3.30;;;2.30;99.90;;;;;;5003515;28;20052;-77
2021/12/09 08:11:07;;;;;;;10.47;4.70;;;2.30;99.90;;;;;;5002953;28;20037;-76
2021/12/09 08:13:33;;;;;;;4.07;3.77;;;2.30;99.90;;;;;;5014625;28;20042;-76
2021/12/09 08:16:00;;;;;;;5.80;3.70;;;2.30;99.90;;;;;;5013798;28;20041;-76
2021/12/09 08:18:27;;;;;;;3.63;3.33;;;2.30;99.90;;;;;;5019096;28;20103;-77
2021/12/09 08:20:59;;;;;;;3.53;3.27;;;2.30;99.90;;;;;;5007572;28;20045;-76
2021/12/09 08:23:25;;;;;;;3.33;3.03;;;2.30;99.90;;;;;;5019748;28;20045;-76
2021/12/09 08:25:52;;;;;;;3.50;3.30;;;2.30;99.90;;;;;;5001816;28;20038;-77
2021/12/09 08:28:18;;;;;;;4.77;4.30;;;2.30;99.90;;;;;;5021181;28;20084;-77
2021/12/09 08:30:44;;;;;;;5.17;3.53;;;2.30;99.90;;;;;;5011140;28;20087;-77
2021/12/09 08:33:10;;;;;;;5.97;4.03;;;2.40;99.90;;;;;;5011069;28;20038;-77
2021/12/09 08:35:36;;;;;;;7.10;3.33;;;2.30;99.90;;;;;;5010804;28;20038;-76
2021/12/09 08:38:07;;;;;;;5.23;4.77;;;2.40;99.90;;;;;;4986874;28;20046;-76
2021/12/09 08:40:33;;;;;;;3.70;3.40;;;2.40;99.90;;;;;;4986904;28;20095;-76
2021/12/09 08:42:59;;;;;;;2.97;2.77;;;2.40;99.90;;;;;;5004253;28;20048;-76
2021/12/09 08:45:25;;;;;;;3.67;2.97;;;2.40;99.90;;;;;;5004592;28;20037;-76
2021/12/09 08:47:51;;;;;;;5.03;2.77;;;2.40;99.90;;;;;;5003635;28;20030;-76
2021/12/09 08:50:20;;;;;;;4.57;2.40;;;2.40;99.90;;;;;;5005095;28;20088;-76
2021/12/09 08:52:47;;;;;;;5.63;4.13;;;2.40;99.90;;;;;;4987206;28;20049;-76
2021/12/09 08:55:13;;;;;;;7.10;3.57;;;2.40;99.90;;;;;;5004254;28;20049;-77
2021/12/09 08:57:39;;;;;;;4.20;3.73;;;2.40;99.90;;;;;;5004487;28;20044;-76
2021/12/09 09:00:08;;;;;;;3.73;3.43;;;2.50;99.90;;;;;;5004240;28;20141;-76
2021/12/09 09:02:35;;;;;;;4.23;3.93;;;2.50;99.90;;;;;;5003212;28;20041;-76
2021/12/09 09:05:01;;;;;;;10.00;1.93;;;2.50;99.90;;;;;;5004337;28;20069;-76
2021/12/09 09:07:26;;;;;;;2.80;2.53;;;2.50;99.90;;;;;;5003956;28;20081;-76
2021/12/09 09:09:52;;;;;;;4.47;3.87;;;2.50;99.90;;;;;;4986100;28;20389;-76
2021/12/09 09:12:18;;;;;;;3.47;3.17;;;2.50;99.90;;;;;;4990271;28;20050;-76
2021/12/09 09:14:44;;;;;;;9.53;3.93;;;2.50;99.90;;;;;;5003665;28;20128;-76
2021/12/09 09:17:10;;;;;;;5.63;4.67;;;2.50;99.90;;;;;;5014687;28;20484;-76
2021/12/09 09:19:36;;;;;;;8.50;4.20;;;2.50;99.90;;;;;;5023586;28;20514;-76
2021/12/09 09:22:03;;;;;;;3.43;3.23;;;2.50;99.90;;;;;;5023443;28;20249;-76
2021/12/09 09:24:29;;;;;;;4.83;4.50;;;2.50;99.90;;;;;;5023526;28;20051;-76
2021/12/09 09:26:54;;;;;;;7.03;3.70;;;2.50;99.90;;;;;;5023499;28;20037;-76
2021/12/09 09:29:20;;;;;;;2.47;2.30;;;2.50;99.90;;;;;;5023712;28;20037;-76
2021/12/09 09:31:46;;;;;;;3.80;3.47;;;2.60;99.90;;;;;;5022639;28;20125;-76
2021/12/09 09:34:12;;;;;;;7.87;4.63;;;2.60;99.90;;;;;;5023063;28;20033;-76
2021/12/09 09:36:44;;;;;;;3.80;3.50;;;2.60;99.90;;;;;;5006291;28;20095;-76
2021/12/09 09:39:19;;;;;;;3.42;3.13;;;2.60;99.90;;;;;;5023226;28;20049;-76
2021/12/09 09:41:54;;;;;;;7.50;3.97;;;2.60;99.90;;;;;;5023414;28;20105;-76
2021/12/09 09:44:24;;;;;;;2.80;2.67;;;2.60;99.90;;;;;;5005579;28;20188;-76
2021/12/09 09:46:49;;;;;;;3.63;3.07;;;2.70;99.90;;;;;;5023205;28;20346;-76
2021/12/09 09:49:15;;;;;;;3.13;2.87;;;2.70;99.90;;;;;;5004897;28;20042;-76
2021/12/09 09:51:40;;;;;;;1.50;1.40;;;2.60;99.90;;;;;;5023502;28;20107;-76
2021/12/09 09:54:07;;;;;;;8.57;4.50;;;2.70;99.90;;;;;;5023017;28;20135;-76
2021/12/09 09:56:34;;;;;;;2.33;2.23;;;2.70;99.90;;;;;;5005269;28;20124;-76
2021/12/09 09:59:04;;;;;;;3.10;2.90;;;2.70;99.90;;;;;;5022827;28;20135;-76
2021/12/09 10:01:32;;;;;;;5.17;3.30;;;2.70;99.90;;;;;;5021988;28;20049;-76
2021/12/09 10:04:09;;;;;;;4.50;4.10;;;2.80;99.90;;;;;;5022413;28;20052;-76
2021/12/09 10:06:41;;;;;;;4.03;3.23;;;2.80;99.90;;;;;;5022931;28;20428;-76
2021/12/09 10:09:08;;;;;;;3.43;3.23;;;2.80;99.90;;;;;;5022368;28;20404;-76
2021/12/09 10:11:34;;;;;;;3.27;3.07;;;2.90;99.90;;;;;;5022789;28;20033;-76
2021/12/09 10:14:15;;;;;;;5.03;3.80;;;2.90;99.90;;;;;;5005026;28;20052;-76
2021/12/09 10:16:42;;;;;;;11.13;5.10;;;2.90;99.90;;;;;;5021965;28;20041;-76
2021/12/09 10:19:20;;;;;;;4.80;3.07;;;2.90;99.90;;;;;;5022656;28;20045;-76
2021/12/09 10:21:47;;;;;;;11.43;3.90;;;2.90;99.90;;;;;;5005202;28;20289;-76
2021/12/09 10:24:13;;;;;;;2.60;2.37;;;3.00;99.90;;;;;;5022302;28;20072;-76
2021/12/09 10:26:41;;;;;;;4.40;3.97;;;3.00;99.90;;;;;;5004867;28;20125;-76
2021/12/09 10:29:29;;;;;;;4.60;3.33;;;3.00;99.90;;;;;;5004562;28;20470;-76
2021/12/09 10:32:00;;;;;;;9.43;5.50;;;3.00;99.90;;;;;;5021069;28;20450;-76
2021/12/09 10:34:46;;;;;;;3.30;3.03;;;3.00;99.90;;;;;;5004541;28;20029;-76
2021/12/09 10:37:20;;;;;;;6.17;4.67;;;3.10;99.90;;;;;;5004536;28;20092;-76
2021/12/09 10:39:53;;;;;;;3.23;2.67;;;3.10;99.90;;;;;;5004424;28;20046;-76
2021/12/09 10:42:23;;;;;;;7.40;3.27;;;3.10;99.90;;;;;;5022734;28;20411;-76
2021/12/09 10:45:11;;;;;;;3.93;3.47;;;3.20;99.90;;;;;;5021837;28;20086;-77
2021/12/09 10:47:58;;;;;;;3.03;2.83;;;3.10;99.90;;;;;;5004456;28;20046;-77
2021/12/09 10:50:40;;;;;;;3.40;3.20;;;3.20;99.90;;;;;;5004656;28;20045;-78
2021/12/09 10:56:09;;;;;;;5.50;3.57;;;3.30;99.90;;;;;;4987970;28;20092;-79
2021/12/09 10:58:44;;;;;;;3.23;3.03;;;3.30;99.90;;;;;;5005570;28;20377;-75
2021/12/09 11:01:12;;;;;;;3.57;3.27;;;3.30;99.90;;;;;;5003993;28;20062;-76
2021/12/09 11:03:42;;;;;;;7.57;4.53;;;3.30;99.90;;;;;;4989359;28;20056;-75
2021/12/09 11:06:10;;;;;;;7.80;5.90;;;3.30;99.90;;;;;;4985298;28;20052;-77
2021/12/09 11:08:53;;;;;;;3.40;3.20;;;3.40;99.90;;;;;;4995050;28;20060;-78
2021/12/09 11:11:31;;;;;;;6.67;4.90;;;3.40;99.90;;;;;;5014020;28;20037;-75
2021/12/09 11:14:00;;;;;;;6.17;5.07;;;3.40;99.90;;;;;;5001830;28;20374;-75
2021/12/09 11:16:27;;;;;;;7.23;6.57;;;3.40;99.90;;;;;;5017983;28;20488;-75
2021/12/09 11:19:06;;;;;;;2.77;2.57;;;3.40;99.90;;;;;;4995822;28;20057;-75
2021/12/09 11:21:36;;;;;;;6.93;6.20;;;3.50;99.90;;;;;;5003825;28;20103;-75
2021/12/09 11:24:07;;;;;;;11.03;6.83;;;3.50;99.90;;;;;;5021073;28;20775;-75
2021/12/09 11:29:15;;;;;;;6.30;5.73;;;3.60;99.90;;;;;;5010894;28;20042;-75
2021/12/09 11:31:57;;;;;;;7.63;5.77;;;3.60;99.90;;;;;;5002097;28;20045;-75
2021/12/09 11:34:29;;;;;;;5.77;5.23;;;3.60;99.90;;;;;;5002373;28;20052;-75
2021/12/09 11:37:01;;;;;;;14.40;5.93;;;3.60;99.90;;;;;;5022255;28;20053;-75
2021/12/09 11:39:32;;;;;;;5.97;5.43;;;3.70;99.90;;;;;;4991223;28;20289;-75
2021/12/09 11:42:10;;;;;;;7.07;6.38;;;3.70;99.90;;;;;;5011769;28;20038;-75
2021/12/09 11:44:36;;;;;;;9.93;6.40;;;3.70;99.90;;;;;;5020865;28;20151;-75
2021/12/09 11:47:03;;;;;;;6.47;4.73;;;3.70;99.90;;;;;;5008944;28;20124;-75
2021/12/09 11:49:29;;;;;;;11.73;6.47;;;3.80;99.90;;;;;;5020577;28;20045;-75
2021/12/09 11:51:55;;;;;;;11.97;6.03;;;3.80;99.90;;;;;;4989578;28;20522;-75
2021/12/09 11:54:23;;;;;;;6.77;5.23;;;3.80;99.90;;;;;;4985138;28;20045;-75
2021/12/09 11:59:51;;;;;;;6.53;5.90;;;3.80;99.90;;;;;;4990407;28;20041;-75
2021/12/09 12:11:19;;;;;;;5.23;4.93;;;3.90;99.90;;;;;;4981886;28;20137;-75
2021/12/09 12:13:56;;;;;;;9.30;8.50;;;3.90;99.90;;;;;;5001244;28;20042;-75
2021/12/09 12:16:42;;;;;;;11.70;6.23;;;3.90;99.90;;;;;;4988505;28;20058;-80
2021/12/09 12:25:11;;;;;;;8.50;7.57;;;3.90;99.90;;;;;;4963801;28;20089;-81
2021/12/09 12:28:10;;;;;;;6.30;5.87;;;3.90;99.90;;;;;;4979692;28;20101;-79
2021/12/09 12:31:07;;;;;;;14.60;7.03;;;3.90;99.90;;;;;;4976284;28;20137;-79
2021/12/09 12:34:36;;;;;;;5.97;4.93;;;3.90;99.90;;;;;;4981129;28;20078;-78
2021/12/09 12:39:34;;;;;;;8.33;6.83;;;4.00;99.90;;;;;;4982456;28;19921;-78
2021/12/09 12:42:08;;;;;;;41.70;8.00;;;4.00;99.90;;;;;;4980834;28;20051;-79
2021/12/09 12:44:35;;;;;;;8.57;7.73;;;4.00;99.90;;;;;;4980663;28;20046;-75
2021/12/09 12:47:13;;;;;;;9.38;6.10;;;4.00;99.90;;;;;;4979991;28;20057;-75
2021/12/09 12:49:45;;;;;;;18.53;7.77;;;4.00;99.90;;;;;;4981757;28;20476;-76
2021/12/09 12:52:21;;;;;;;13.43;7.43;;;4.00;99.90;;;;;;4981887;28;20471;-76
2021/12/09 12:54:56;;;;;;;12.50;7.77;;;4.00;99.90;;;;;;4982440;28;20148;-77
2021/12/09 12:57:43;;;;;;;25.40;5.20;;;4.00;99.90;;;;;;4981166;28;20042;-77
2021/12/09 13:00:28;;;;;;;9.83;5.87;;;4.00;99.90;;;;;;4967454;28;20544;-79
2021/12/09 13:03:23;;;;;;;8.30;5.30;;;4.10;99.90;;;;;;4980105;28;20532;-81
2021/12/09 13:05:55;;;;;;;9.43;7.87;;;4.00;99.90;;;;;;4984681;28;20050;-81
2021/12/09 13:11:17;;;;;;;6.13;5.63;;;4.10;99.90;;;;;;5002937;28;20065;-81
2021/12/09 13:14:02;;;;;;;11.93;6.67;;;4.10;99.90;;;;;;5012679;28;20105;-81
2021/12/09 13:17:15;;;;;;;12.97;7.03;;;4.10;99.90;;;;;;5004201;28;20038;-80
2021/12/09 13:20:07;;;;;;;9.80;8.80;;;4.10;99.90;;;;;;4993371;28;20045;-81
2021/12/09 13:22:37;;;;;;;13.60;8.27;;;4.10;99.90;;;;;;5023713;28;20045;-80
2021/12/09 13:25:28;;;;;;;14.10;7.97;;;4.10;99.90;;;;;;5022981;28;20049;-79
2021/12/09 13:28:04;;;;;;;6.60;6.00;;;4.10;99.90;;;;;;5011080;28;20064;-82
2021/12/09 13:33:27;;;;;;;5.82;5.43;;;4.20;99.90;;;;;;4987413;28;20053;-80
2021/12/09 13:55:00;;;;;;;13.73;8.87;;;4.30;99.90;;;;;;5016504;28;20052;-80
2021/12/09 13:57:35;;;;;;;8.10;7.40;;;4.30;99.90;;;;;;5004584;28;20038;-82